createdAt,value
2023-05-22T00:01:50.334Z,48.34
2023-05-22T00:04:16.985Z,48.59
2023-05-22T00:06:43.635Z,48.33
2023-05-22T00:09:10.330Z,48.37
2023-05-22T00:11:37.040Z,48.39
2023-05-22T00:14:03.865Z,48.37
2023-05-22T00:16:30.743Z,48.86
2023-05-22T00:18:57.655Z,48.74
2023-05-22T00:21:24.572Z,48.75
2023-05-22T00:23:51.220Z,49.13
2023-05-22T00:26:17.915Z,48.96
2023-05-22T00:28:44.581Z,49.16
2023-05-22T00:31:11.365Z,49.30
2023-05-22T00:33:37.992Z,49.21
2023-05-22T00:36:05.504Z,49.23
2023-05-22T00:38:34.552Z,49.69
2023-05-22T00:41:02.647Z,49.72
2023-05-22T00:43:29.411Z,49.93
2023-05-22T00:45:56.650Z,49.77
2023-05-22T00:48:23.964Z,49.80
2023-05-22T00:50:51.507Z,49.96
2023-05-22T00:53:22.764Z,51.62
2023-05-22T00:55:50.243Z,50.26
2023-05-22T00:58:18.457Z,50.61
2023-05-22T01:00:45.778Z,51.93
2023-05-22T01:03:17.895Z,51.26
2023-05-22T01:05:45.682Z,50.70
2023-05-22T01:08:12.589Z,50.81
2023-05-22T01:10:40.562Z,50.95
2023-05-22T01:13:16.168Z,52.11
2023-05-22T01:16:01.603Z,50.83
2023-05-22T01:19:04.353Z,52.80
2023-05-22T01:22:05.786Z,52.18
2023-05-22T01:24:47.081Z,52.14
2023-05-22T01:27:40.404Z,53.13
2023-05-22T01:30:40.427Z,52.60
2023-05-22T01:33:09.597Z,51.29
2023-05-22T01:35:39.633Z,52.49
2023-05-22T01:38:08.491Z,51.88
2023-05-22T01:40:36.982Z,51.80
2023-05-22T01:43:04.404Z,51.96
2023-05-22T01:45:31.257Z,52.27
2023-05-22T01:47:58.826Z,52.06
2023-05-22T01:50:25.690Z,52.09
2023-05-22T01:53:11.951Z,53.48
2023-05-22T01:55:46.971Z,53.60
2023-05-22T01:58:26.407Z,53.95
2023-05-22T02:00:58.047Z,53.49
2023-05-22T02:03:30.145Z,53.81
2023-05-22T02:06:00.183Z,53.25
2023-05-22T02:08:28.223Z,52.45
2023-05-22T02:10:56.794Z,52.35
2023-05-22T02:13:23.676Z,52.41
2023-05-22T02:15:51.642Z,52.38
2023-05-22T02:18:18.396Z,52.27
2023-05-22T02:20:46.634Z,52.66
2023-05-22T02:23:13.563Z,52.25
2023-05-22T02:25:40.400Z,52.49
2023-05-22T02:28:07.048Z,52.38
2023-05-22T02:30:33.763Z,52.45
2023-05-22T02:33:00.638Z,52.53
2023-05-22T02:35:27.366Z,52.55
2023-05-22T02:37:54.329Z,52.64
2023-05-22T02:40:21.125Z,52.56
2023-05-22T02:42:47.888Z,52.89
2023-05-22T02:45:15.298Z,52.58
2023-05-22T02:47:42.056Z,52.85
2023-05-22T02:50:09.087Z,53.01
2023-05-22T02:52:35.992Z,52.95
2023-05-22T02:55:03.944Z,52.97
2023-05-22T02:57:30.723Z,52.98
2023-05-22T02:59:58.829Z,53.20
2023-05-22T03:02:26.491Z,53.21
2023-05-22T03:04:53.184Z,53.31
2023-05-22T03:07:19.848Z,53.84
2023-05-22T03:09:46.443Z,53.83
2023-05-22T03:12:13.076Z,54.04
2023-05-22T03:14:39.971Z,53.81
2023-05-22T03:17:06.734Z,53.73
2023-05-22T03:19:33.641Z,53.76
2023-05-22T03:22:00.369Z,53.89
2023-05-22T03:24:27.178Z,54.09
2023-05-22T03:26:54.140Z,54.03
2023-05-22T03:29:30.802Z,54.53
2023-05-22T03:31:57.692Z,54.37
2023-05-22T03:34:25.442Z,54.57
2023-05-22T03:36:52.237Z,54.38
2023-05-22T03:39:18.931Z,54.78
2023-05-22T03:41:54.535Z,54.60
2023-05-22T03:44:23.307Z,54.57
2023-05-22T03:46:50.266Z,54.48
2023-05-22T03:49:16.949Z,54.79
2023-05-22T03:51:43.703Z,54.83
2023-05-22T03:54:10.380Z,54.61
2023-05-22T03:56:37.535Z,54.56
2023-05-22T03:59:04.205Z,54.73
2023-05-22T04:01:30.938Z,54.80
2023-05-22T04:03:57.565Z,54.86
2023-05-22T04:06:24.372Z,54.88
2023-05-22T04:08:51.128Z,55.14
2023-05-22T04:11:17.788Z,55.36
2023-05-22T04:13:45.126Z,55.23
2023-05-22T04:16:11.898Z,55.37
2023-05-22T04:18:38.521Z,55.75
2023-05-22T04:21:05.699Z,55.68
2023-05-22T04:23:32.462Z,55.72
2023-05-22T04:25:59.106Z,56.04
2023-05-22T04:28:25.890Z,56.21
2023-05-22T04:30:52.549Z,56.60
2023-05-22T04:33:19.230Z,56.84
2023-05-22T04:35:45.859Z,56.63
2023-05-22T04:38:12.457Z,56.57
2023-05-22T04:40:39.322Z,56.00
2023-05-22T04:43:06.324Z,55.60
2023-05-22T04:45:33.130Z,55.33
2023-05-22T04:48:00.195Z,54.86
2023-05-22T04:50:27.093Z,54.57
2023-05-22T04:52:53.696Z,54.47
2023-05-22T04:55:20.464Z,54.12
2023-05-22T04:57:47.633Z,53.96
2023-05-22T05:00:15.087Z,53.98
2023-05-22T05:02:42.100Z,53.97
2023-05-22T05:05:09.023Z,53.92
2023-05-22T05:07:39.871Z,54.34
2023-05-22T05:10:09.588Z,53.70
2023-05-22T05:12:37.007Z,53.93
2023-05-22T05:15:03.969Z,54.09
2023-05-22T05:17:30.612Z,54.11
2023-05-22T05:19:57.387Z,54.19
2023-05-22T05:22:24.222Z,54.21
2023-05-22T05:24:50.944Z,54.57
2023-05-22T05:27:17.671Z,54.46
2023-05-22T05:29:45.033Z,54.30
2023-05-22T05:32:19.235Z,54.43
2023-05-22T05:35:06.457Z,54.45
2023-05-22T05:37:45.566Z,54.39
2023-05-22T05:40:13.421Z,54.15
2023-05-22T05:42:45.037Z,53.95
2023-05-22T05:45:13.592Z,53.94
2023-05-22T05:47:40.336Z,53.69
2023-05-22T05:50:08.198Z,53.41
2023-05-22T05:52:37.835Z,53.06
2023-05-22T05:55:10.181Z,52.62
2023-05-22T05:57:37.525Z,52.11
2023-05-22T06:00:07.819Z,52.12
2023-05-22T06:02:43.293Z,52.29
2023-05-22T06:05:23.784Z,51.74
2023-05-22T06:07:57.065Z,51.68
2023-05-22T06:10:24.003Z,51.83
2023-05-22T06:12:58.381Z,51.87
2023-05-22T06:15:25.572Z,51.31
2023-05-22T06:17:52.401Z,51.17
2023-05-22T06:20:19.958Z,51.16
2023-05-22T06:22:46.769Z,51.12
2023-05-22T06:25:13.479Z,50.10
2023-05-22T06:27:40.309Z,49.64
2023-05-22T06:30:07.798Z,49.18
2023-05-22T06:32:38.890Z,49.25
2023-05-22T06:35:07.221Z,49.10
2023-05-22T06:37:33.803Z,48.96
2023-05-22T06:40:01.109Z,48.18
2023-05-22T06:42:33.609Z,48.49
2023-05-22T06:45:20.301Z,48.35
2023-05-22T06:48:02.041Z,48.21
2023-05-22T06:50:30.652Z,47.69
2023-05-22T06:52:57.709Z,47.36
2023-05-22T06:55:25.259Z,47.64
2023-05-22T06:58:02.891Z,47.48
2023-05-22T07:00:31.273Z,47.63
2023-05-22T07:03:07.768Z,46.91
2023-05-22T07:06:02.013Z,47.01
2023-05-22T07:08:30.439Z,47.22
2023-05-22T07:10:57.506Z,47.12
2023-05-22T07:13:24.181Z,46.67
2023-05-22T07:15:50.961Z,46.07
2023-05-22T07:18:17.632Z,46.37
2023-05-22T07:20:44.865Z,45.75
2023-05-22T07:23:15.368Z,45.74
2023-05-22T07:25:43.087Z,45.53
2023-05-22T07:28:11.564Z,45.43
2023-05-22T07:30:50.081Z,45.63
2023-05-22T07:33:16.753Z,45.78
2023-05-22T07:35:44.496Z,45.42
2023-05-22T07:38:11.512Z,45.42
2023-05-22T07:40:41.900Z,45.25
2023-05-22T07:43:08.554Z,45.61
2023-05-22T07:45:35.994Z,45.41
2023-05-22T07:48:06.887Z,45.48
2023-05-22T07:50:36.161Z,45.29
2023-05-22T07:53:03.802Z,45.06
2023-05-22T07:55:34.013Z,45.20
2023-05-22T07:58:03.319Z,45.59
2023-05-22T08:00:34.745Z,44.81
2023-05-22T08:03:01.555Z,44.93
2023-05-22T08:05:28.403Z,44.70
2023-05-22T08:07:55.108Z,45.07
2023-05-22T08:10:22.641Z,44.82
2023-05-22T08:12:49.238Z,44.62
2023-05-22T08:15:15.900Z,44.79
2023-05-22T08:17:42.659Z,44.09
2023-05-22T08:20:09.788Z,44.15
2023-05-22T08:22:38.812Z,44.30
2023-05-22T08:25:05.628Z,44.19
2023-05-22T08:27:32.359Z,44.52
2023-05-22T08:29:58.986Z,44.33
2023-05-22T08:32:25.657Z,43.91
2023-05-22T08:34:52.400Z,44.40
2023-05-22T08:37:19.160Z,43.82
2023-05-22T08:39:45.764Z,43.70
2023-05-22T08:42:12.618Z,43.86
2023-05-22T08:44:39.548Z,43.82
2023-05-22T08:47:07.165Z,44.21
2023-05-22T08:49:36.739Z,44.11
2023-05-22T08:52:14.762Z,44.22
2023-05-22T08:54:42.586Z,44.57
2023-05-22T08:57:09.704Z,44.00
2023-05-22T08:59:37.867Z,44.40
2023-05-22T09:02:06.770Z,44.19
2023-05-22T09:04:33.661Z,44.43
2023-05-22T09:07:00.396Z,43.71
2023-05-22T09:09:27.094Z,42.87
2023-05-22T09:11:54.935Z,43.38
2023-05-22T09:14:21.550Z,43.19
2023-05-22T09:16:51.524Z,42.68
2023-05-22T09:19:18.572Z,42.28
2023-05-22T09:21:45.247Z,42.46
2023-05-22T09:24:12.148Z,42.31
2023-05-22T09:26:39.652Z,42.51
2023-05-22T09:29:09.561Z,42.60
2023-05-22T09:31:43.589Z,42.31
2023-05-22T09:34:12.564Z,42.68
2023-05-22T09:36:39.173Z,42.87
2023-05-22T09:39:05.912Z,42.33
2023-05-22T09:41:38.452Z,41.85
2023-05-22T09:44:15.292Z,41.51
2023-05-22T09:46:44.270Z,41.74
2023-05-22T09:49:14.148Z,42.04
2023-05-22T09:51:45.399Z,41.39
2023-05-22T09:54:14.039Z,41.61
2023-05-22T09:56:43.356Z,41.24
2023-05-22T09:59:13.398Z,41.76
2023-05-22T10:01:41.310Z,41.42
2023-05-22T10:04:12.669Z,42.29
2023-05-22T10:06:40.650Z,41.90
2023-05-22T10:09:15.856Z,40.71
2023-05-22T10:11:45.165Z,40.90
2023-05-22T10:14:12.548Z,39.52
2023-05-22T10:16:41.203Z,40.68
2023-05-22T10:19:08.153Z,40.10
2023-05-22T10:21:35.957Z,40.05
2023-05-22T10:24:03.525Z,41.08
2023-05-22T10:26:30.479Z,40.32
2023-05-22T10:29:11.138Z,40.91
2023-05-22T10:32:00.576Z,40.51
2023-05-22T10:34:47.879Z,40.26
2023-05-22T10:37:52.049Z,38.43
2023-05-22T10:40:32.677Z,39.85
2023-05-22T10:43:01.056Z,38.95
2023-05-22T10:45:28.857Z,39.55
2023-05-22T10:48:11.846Z,39.54
2023-05-22T10:50:40.165Z,39.35
2023-05-22T10:53:30.851Z,39.80
2023-05-22T10:55:59.269Z,39.69
2023-05-22T10:58:28.969Z,39.55
2023-05-22T11:01:18.879Z,39.69
2023-05-22T11:04:11.198Z,39.97
2023-05-22T11:06:45.337Z,38.95
2023-05-22T11:09:27.204Z,38.77
2023-05-22T11:12:13.917Z,39.77
2023-05-22T11:14:40.586Z,40.01
2023-05-22T11:17:07.337Z,39.62
2023-05-22T11:19:34.455Z,38.96
2023-05-22T11:22:01.719Z,38.52
2023-05-22T11:24:32.965Z,38.17
2023-05-22T11:27:06.411Z,38.69
2023-05-22T11:29:33.804Z,38.51
2023-05-22T11:32:01.788Z,39.10
2023-05-22T11:34:28.701Z,39.40
2023-05-22T11:36:59.812Z,39.13
2023-05-22T11:39:26.884Z,38.96
2023-05-22T11:41:53.657Z,38.94
2023-05-22T11:44:20.517Z,38.33
2023-05-22T11:46:47.313Z,39.01
2023-05-22T11:49:14.141Z,38.99
2023-05-22T11:51:40.823Z,39.32
2023-05-22T11:54:07.755Z,38.67
2023-05-22T11:56:34.375Z,38.86
2023-05-22T11:59:01.508Z,38.98
2023-05-22T12:01:28.323Z,39.07
2023-05-22T12:03:55.125Z,38.69
2023-05-22T12:06:22.146Z,38.58
2023-05-22T12:08:48.958Z,37.18
2023-05-22T12:11:15.612Z,38.01
2023-05-22T12:13:42.244Z,37.38
2023-05-22T12:16:20.044Z,37.82
2023-05-22T12:18:46.756Z,37.73
2023-05-22T12:21:13.417Z,37.97
2023-05-22T12:23:49.162Z,37.66
2023-05-22T12:26:16.137Z,38.48
2023-05-22T12:28:43.232Z,38.26
2023-05-22T12:31:09.922Z,37.44
2023-05-22T12:33:39.356Z,37.29
2023-05-22T12:36:09.342Z,37.01
2023-05-22T12:38:38.096Z,37.30
2023-05-22T12:41:04.949Z,36.88
2023-05-22T12:43:31.734Z,36.62
2023-05-22T12:46:00.458Z,35.96
2023-05-22T12:48:29.097Z,36.83
2023-05-22T12:50:55.914Z,36.68
2023-05-22T12:53:22.506Z,36.44
2023-05-22T12:55:49.207Z,36.20
2023-05-22T12:58:16.215Z,36.46
2023-05-22T13:00:42.890Z,35.89
2023-05-22T13:03:09.957Z,36.67
2023-05-22T13:05:36.728Z,36.44
2023-05-22T13:08:03.340Z,37.29
2023-05-22T13:10:30.109Z,36.40
2023-05-22T13:12:56.924Z,36.89
2023-05-22T13:15:23.680Z,36.48
2023-05-22T13:17:50.365Z,36.10
2023-05-22T13:20:16.981Z,36.31
2023-05-22T13:22:43.671Z,35.90
2023-05-22T13:25:10.398Z,35.33
2023-05-22T13:27:37.023Z,35.88
2023-05-22T13:30:03.989Z,35.65
2023-05-22T13:32:30.660Z,36.42
2023-05-22T13:34:57.277Z,36.16
2023-05-22T13:37:23.989Z,36.19
2023-05-22T13:39:50.921Z,35.86
2023-05-22T13:42:17.709Z,33.60
2023-05-22T13:44:44.712Z,34.28
2023-05-22T13:47:11.564Z,33.69
2023-05-22T13:49:38.160Z,34.35
2023-05-22T13:52:04.961Z,32.38
2023-05-22T13:54:31.569Z,33.17
2023-05-22T13:56:58.166Z,33.62
2023-05-22T13:59:24.849Z,32.51
2023-05-22T14:01:51.509Z,31.96
2023-05-22T14:04:18.130Z,31.75
2023-05-22T14:06:44.814Z,31.61
2023-05-22T14:09:11.490Z,32.36
2023-05-22T14:11:38.262Z,32.31
2023-05-22T14:14:05.017Z,32.26
2023-05-22T14:16:31.770Z,31.17
2023-05-22T14:19:00.200Z,31.93
2023-05-22T14:21:27.613Z,31.62
2023-05-22T14:23:54.356Z,31.99
2023-05-22T14:26:20.996Z,31.94
2023-05-22T14:28:47.772Z,32.02
2023-05-22T14:31:14.429Z,32.10
2023-05-22T14:33:41.293Z,30.34
2023-05-22T14:36:08.041Z,29.59
2023-05-22T14:38:34.727Z,30.43
2023-05-22T14:41:02.085Z,30.72
2023-05-22T14:43:28.702Z,28.49
2023-05-22T14:45:55.888Z,27.72
2023-05-22T14:48:22.632Z,27.92
2023-05-22T14:50:49.247Z,27.96
2023-05-22T14:53:15.916Z,27.51
2023-05-22T14:55:42.608Z,27.53
2023-05-22T14:58:10.234Z,28.46
2023-05-22T15:00:36.892Z,29.22
2023-05-22T15:03:03.991Z,29.56
2023-05-22T15:05:30.805Z,28.91
2023-05-22T15:07:57.562Z,28.84
2023-05-22T15:10:27.164Z,29.15
2023-05-22T15:12:54.206Z,28.42
2023-05-22T15:15:20.894Z,28.02
2023-05-22T15:17:47.511Z,27.92
2023-05-22T15:20:14.132Z,27.62
2023-05-22T15:22:40.883Z,27.44
2023-05-22T15:25:10.440Z,27.32
2023-05-22T15:27:38.713Z,28.20
2023-05-22T15:30:06.335Z,28.04
2023-05-22T15:32:33.057Z,27.56
2023-05-22T15:34:59.783Z,28.30
2023-05-22T15:37:27.921Z,27.18
2023-05-22T15:39:55.243Z,27.11
2023-05-22T15:42:21.918Z,26.70
2023-05-22T15:44:48.536Z,27.03
2023-05-22T15:47:15.140Z,26.90
2023-05-22T15:49:41.805Z,27.28
2023-05-22T15:52:08.426Z,27.44
2023-05-22T15:54:35.054Z,27.83
2023-05-22T15:57:01.652Z,28.01
2023-05-22T15:59:28.260Z,27.58
2023-05-22T16:01:54.878Z,27.20
2023-05-22T16:04:21.481Z,26.81
2023-05-22T16:06:48.078Z,26.79
2023-05-22T16:09:14.710Z,26.52
2023-05-22T16:11:41.303Z,25.85
2023-05-22T16:14:08.075Z,25.38
2023-05-22T16:16:34.856Z,25.06
2023-05-22T16:19:01.568Z,25.11
2023-05-22T16:21:28.251Z,25.13
2023-05-22T16:23:57.564Z,25.67
2023-05-22T16:26:24.186Z,25.67
2023-05-22T16:28:50.771Z,25.40
2023-05-22T16:31:19.322Z,25.94
2023-05-22T16:33:46.155Z,26.38
2023-05-22T16:36:12.767Z,26.85
2023-05-22T16:38:39.341Z,27.15
2023-05-22T16:41:05.951Z,26.64
2023-05-22T16:43:32.624Z,26.51
2023-05-22T16:45:59.245Z,26.39
2023-05-22T16:48:26.019Z,25.88
2023-05-22T16:50:52.675Z,25.80
2023-05-22T16:53:19.759Z,26.11
2023-05-22T16:55:46.458Z,24.72
2023-05-22T16:58:13.158Z,24.70
2023-05-22T17:00:39.903Z,24.54
2023-05-22T17:03:06.914Z,24.13
2023-05-22T17:05:34.382Z,24.41
2023-05-22T17:08:00.963Z,24.17
2023-05-22T17:10:27.574Z,24.31
2023-05-22T17:12:54.331Z,24.17
2023-05-22T17:15:21.057Z,24.09
2023-05-22T17:17:47.854Z,23.59
2023-05-22T17:20:14.501Z,23.82
2023-05-22T17:22:42.776Z,23.62
2023-05-22T17:25:10.008Z,23.31
2023-05-22T17:27:37.094Z,23.80
2023-05-22T17:30:05.052Z,23.26
2023-05-22T17:32:31.782Z,23.13
2023-05-22T17:34:58.934Z,23.53
2023-05-22T17:37:25.658Z,24.04
2023-05-22T17:39:53.330Z,24.34
2023-05-22T17:42:19.920Z,25.42
2023-05-22T17:44:46.537Z,25.61
2023-05-22T17:47:13.206Z,26.06
2023-05-22T17:49:39.886Z,26.27
2023-05-22T17:52:06.677Z,26.75
2023-05-22T17:54:34.320Z,26.92
2023-05-22T17:57:01.243Z,27.69
2023-05-22T17:59:27.964Z,27.76
2023-05-22T18:01:54.672Z,28.03
2023-05-22T18:04:21.350Z,28.72
2023-05-22T18:06:48.105Z,28.84
2023-05-22T18:09:14.841Z,29.54
2023-05-22T18:11:41.603Z,30.05
2023-05-22T18:14:08.359Z,30.20
2023-05-22T18:16:34.981Z,30.85
2023-05-22T18:19:01.745Z,31.28
2023-05-22T18:21:28.614Z,31.83
2023-05-22T18:23:55.728Z,32.07
2023-05-22T18:26:22.616Z,32.81
2023-05-22T18:28:49.300Z,32.55
2023-05-22T18:31:16.013Z,32.92
2023-05-22T18:33:42.686Z,32.92
2023-05-22T18:36:09.329Z,33.14
2023-05-22T18:38:36.160Z,33.41
2023-05-22T18:41:02.788Z,34.02
2023-05-22T18:43:29.399Z,33.98
2023-05-22T18:45:56.875Z,34.38
2023-05-22T18:48:24.378Z,34.20
2023-05-22T18:50:51.491Z,34.75
2023-05-22T18:53:18.261Z,34.51
2023-05-22T18:55:45.066Z,35.22
2023-05-22T18:58:11.837Z,35.14
2023-05-22T19:00:38.538Z,35.12
2023-05-22T19:03:08.335Z,36.02
2023-05-22T19:05:35.300Z,35.60
2023-05-22T19:08:02.158Z,36.29
2023-05-22T19:10:28.911Z,36.88
2023-05-22T19:12:55.530Z,37.02
2023-05-22T19:15:22.389Z,36.89
2023-05-22T19:17:49.011Z,37.16
2023-05-22T19:20:15.888Z,37.67
2023-05-22T19:22:42.634Z,38.22
2023-05-22T19:25:09.468Z,38.22
2023-05-22T19:27:38.782Z,38.18
2023-05-22T19:30:06.772Z,38.34
2023-05-22T19:32:33.418Z,38.43
2023-05-22T19:35:00.111Z,39.05
2023-05-22T19:37:26.744Z,39.10
2023-05-22T19:39:54.180Z,39.57
2023-05-22T19:42:20.872Z,39.22
2023-05-22T19:44:47.458Z,39.73
2023-05-22T19:47:14.125Z,39.70
2023-05-22T19:49:40.755Z,39.97
2023-05-22T19:52:07.545Z,40.27
2023-05-22T19:54:35.022Z,40.21
2023-05-22T19:57:04.805Z,40.21
2023-05-22T19:59:31.716Z,40.64
2023-05-22T20:01:58.330Z,40.60
2023-05-22T20:04:25.055Z,41.02
2023-05-22T20:06:51.692Z,41.74
2023-05-22T20:09:18.466Z,41.65
2023-05-22T20:11:45.182Z,41.47
2023-05-22T20:14:12.855Z,41.51
2023-05-22T20:16:39.702Z,41.80
2023-05-22T20:19:06.757Z,41.78
2023-05-22T20:21:33.550Z,41.92
2023-05-22T20:24:00.427Z,41.71
2023-05-22T20:26:27.109Z,42.40
2023-05-22T20:28:53.900Z,42.68
2023-05-22T20:31:20.586Z,42.71
2023-05-22T20:33:47.195Z,42.70
2023-05-22T20:36:13.945Z,43.01
2023-05-22T20:38:40.725Z,43.01
2023-05-22T20:41:09.555Z,43.40
2023-05-22T20:43:36.613Z,43.91
2023-05-22T20:46:03.302Z,44.10
2023-05-22T20:48:30.039Z,44.47
2023-05-22T20:50:56.819Z,44.75
2023-05-22T20:53:23.404Z,44.76
2023-05-22T20:55:50.047Z,44.90
2023-05-22T20:58:16.744Z,44.94
2023-05-22T21:00:43.429Z,45.33
2023-05-22T21:03:10.098Z,45.35
2023-05-22T21:05:36.817Z,45.20
2023-05-22T21:08:03.511Z,45.34
2023-05-22T21:10:30.212Z,45.11
2023-05-22T21:12:56.862Z,45.66
2023-05-22T21:15:23.480Z,45.66
2023-05-22T21:17:50.108Z,45.28
2023-05-22T21:20:16.874Z,45.22
2023-05-22T21:22:43.583Z,45.74
2023-05-22T21:25:10.213Z,45.66
2023-05-22T21:27:36.809Z,45.62
2023-05-22T21:30:03.787Z,45.92
2023-05-22T21:32:30.473Z,45.78
2023-05-22T21:34:57.219Z,45.65
2023-05-22T21:37:23.824Z,46.24
2023-05-22T21:39:50.475Z,45.95
2023-05-22T21:42:17.480Z,46.41
2023-05-22T21:44:44.184Z,46.66
2023-05-22T21:47:11.022Z,46.72
2023-05-22T21:49:39.447Z,46.60
2023-05-22T21:52:06.378Z,46.90
2023-05-22T21:54:33.015Z,46.93
2023-05-22T21:56:59.741Z,47.10
2023-05-22T21:59:26.557Z,46.87
2023-05-22T22:01:53.221Z,47.22
2023-05-22T22:04:20.032Z,47.55
2023-05-22T22:06:46.664Z,47.97
2023-05-22T22:09:13.261Z,48.09
2023-05-22T22:11:39.891Z,47.70
2023-05-22T22:14:06.530Z,47.71
2023-05-22T22:16:34.097Z,47.66
2023-05-22T22:19:01.535Z,47.86
2023-05-22T22:21:28.330Z,47.86
2023-05-22T22:23:55.230Z,48.03
2023-05-22T22:26:21.839Z,47.84
2023-05-22T22:28:48.414Z,48.02
2023-05-22T22:31:15.098Z,48.76
2023-05-22T22:33:41.799Z,48.34
2023-05-22T22:36:08.502Z,48.87
2023-05-22T22:38:35.315Z,48.79
2023-05-22T22:41:02.058Z,48.96
2023-05-22T22:43:28.733Z,49.05
2023-05-22T22:45:55.500Z,49.20
2023-05-22T22:48:22.136Z,49.54
2023-05-22T22:50:49.219Z,49.66
2023-05-22T22:53:15.902Z,50.09
2023-05-22T22:55:42.894Z,50.45
2023-05-22T22:58:09.829Z,50.53
2023-05-22T23:00:36.606Z,50.66
2023-05-22T23:03:03.396Z,50.86
2023-05-22T23:05:30.235Z,51.14
2023-05-22T23:07:56.859Z,50.94
2023-05-22T23:10:23.532Z,51.42
2023-05-22T23:12:50.126Z,51.56
2023-05-22T23:15:16.841Z,51.23
2023-05-22T23:17:43.530Z,51.40
2023-05-22T23:20:11.034Z,51.52
2023-05-22T23:22:37.744Z,51.70
2023-05-22T23:25:04.748Z,52.13
2023-05-22T23:27:31.460Z,51.72
2023-05-22T23:29:58.166Z,51.32
2023-05-22T23:32:24.888Z,51.33
2023-05-22T23:34:51.619Z,51.39
2023-05-22T23:37:18.348Z,51.99
2023-05-22T23:39:44.957Z,51.43
2023-05-22T23:42:11.664Z,51.33
2023-05-22T23:44:38.377Z,51.68
2023-05-22T23:47:06.212Z,51.70
2023-05-22T23:49:33.012Z,52.05
2023-05-22T23:52:00.090Z,51.62
2023-05-22T23:54:26.726Z,52.08
2023-05-22T23:56:53.352Z,52.35
2023-05-22T23:59:20.054Z,51.97
